Map

Track Data

SID SEASON NUMBER BASIN SUBBASIN NAME ISO_TIME NATURE LAT LON WMO_WIND WMO_PRES WMO_AGENCY TRACK_TYPE DIST2LAND LANDFALL IFLAG USA_AGENCY USA_ATCF_ID USA_LAT USA_LON USA_RECORD USA_STATUS USA_WIND USA_PRES USA_SSHS USA_R34_NE USA_R34_SE USA_R34_SW USA_R34_NW USA_R50_NE USA_R50_SE USA_R50_SW USA_R50_NW USA_R64_NE USA_R64_SE USA_R64_SW USA_R64_NW USA_POCI USA_ROCI USA_RMW USA_EYE TOKYO_LAT TOKYO_LON TOKYO_GRADE TOKYO_WIND TOKYO_PRES TOKYO_R50_DIR TOKYO_R50_LONG TOKYO_R50_SHORT TOKYO_R30_DIR TOKYO_R30_LONG TOKYO_R30_SHORT TOKYO_LAND CMA_LAT CMA_LON CMA_CAT CMA_WIND CMA_PRES HKO_LAT HKO_LON HKO_CAT HKO_WIND HKO_PRES NEWDELHI_LAT NEWDELHI_LON NEWDELHI_GRADE NEWDELHI_WIND NEWDELHI_PRES NEWDELHI_CI NEWDELHI_DP NEWDELHI_POCI REUNION_LAT REUNION_LON REUNION_TYPE REUNION_WIND REUNION_PRES REUNION_TNUM REUNION_CI REUNION_RMW REUNION_R34_NE REUNION_R34_SE REUNION_R34_SW REUNION_R34_NW REUNION_R50_NE REUNION_R50_SE REUNION_R50_SW REUNION_R50_NW REUNION_R64_NE REUNION_R64_SE REUNION_R64_SW REUNION_R64_NW BOM_LAT BOM_LON BOM_TYPE BOM_WIND BOM_PRES BOM_TNUM BOM_CI BOM_RMW BOM_R34_NE BOM_R34_SE BOM_R34_SW BOM_R34_NW BOM_R50_NE BOM_R50_SE BOM_R50_SW BOM_R50_NW BOM_R64_NE BOM_R64_SE BOM_R64_SW BOM_R64_NW BOM_ROCI BOM_POCI BOM_EYE BOM_POS_METHOD BOM_PRES_METHOD NADI_LAT NADI_LON NADI_CAT NADI_WIND NADI_PRES WELLINGTON_LAT WELLINGTON_LON WELLINGTON_WIND WELLINGTON_PRES DS824_LAT DS824_LON DS824_STAGE DS824_WIND DS824_PRES TD9636_LAT TD9636_LON TD9636_STAGE TD9636_WIND TD9636_PRES TD9635_LAT TD9635_LON TD9635_WIND TD9635_PRES TD9635_ROCI NEUMANN_LAT NEUMANN_LON NEUMANN_CLASS NEUMANN_WIND NEUMANN_PRES MLC_LAT MLC_LON MLC_CLASS MLC_WIND MLC_PRES USA_GUST BOM_GUST BOM_GUST_PER REUNION_GUST REUNION_GUST_PER USA_SEAHGT USA_SEARAD_NE USA_SEARAD_SE USA_SEARAD_SW USA_SEARAD_NW STORM_SPEED STORM_DIR
1972242N41163 1972 85 WP MM DORIS 1972-08-29 03:00:00 NR 40.5953 163.097 spur-other 1189 1107 ______________ -1 22 4
1972242N41163 1972 85 WP MM DORIS 1972-08-29 06:00:00 TS 41.7000 163.200 996 tokyo spur-other 1097 943 _O____________ -1 41.7000 163.200 2 996 0 0 0 24 338
1972242N41163 1972 85 WP MM DORIS 1972-08-29 09:00:00 TS 42.8631 161.890 spur-other 930 764 _P____________ -1 42.9074 161.642 2 996 0 0 33 314
1972242N41163 1972 85 WP MM DORIS 1972-08-29 12:00:00 ET 44.0000 160.000 996 tokyo spur-other 751 609 _O____________ -1 44.0000 160.000 6 996 0 0 0 33 309
1972242N41163 1972 85 WP MM DORIS 1972-08-29 15:00:00 ET 44.9492 158.332 spur-other 606 472 _P____________ -1 44.9492 158.332 6 996 0 0 29 313
1972242N41163 1972 85 WP MM DORIS 1972-08-29 18:00:00 ET 46.0000 157.000 996 tokyo spur-other 459 297 _O____________ -1 46.0000 157.000 6 996 0 0 0 29 332
1972242N41163 1972 85 WP MM DORIS 1972-08-29 21:00:00 ET 47.4951 156.412 spur-other 286 129 _P____________ -1 47.4951 156.412 6 996 0 0 31 347
1972242N41163 1972 85 WP MM DORIS 1972-08-30 00:00:00 ET 49.0000 156.000 996 tokyo spur-other 119 13 _O____________ -1 49.0000 156.000 6 996 0 0 0 27 340
1972242N41163 1972 85 WP MM DORIS 1972-08-30 03:00:00 ET 50.0023 154.999 spur-other 18 18 _P____________ -1 50.0023 154.999 6 997 0 0 24 327
1972242N41163 1972 85 WP MM DORIS 1972-08-30 06:00:00 ET 51.0000 154.000 998 tokyo spur-other 114 114 _O____________ -1 51.0000 154.000 6 998 0 0 0 26 338
1972242N41163 1972 85 WP MM DORIS 1972-08-30 09:00:00 ET 52.4236 153.418 spur-other 193 185 _P____________ -1 52.4236 153.418 6 999 0 0 31 349
1972242N41163 1972 85 WP MM DORIS 1972-08-30 12:00:00 ET 54.0000 153.000 1000 tokyo spur-other 186 183 _O____________ -1 54.0000 153.000 6 1000 0 0 0 32 350
1972242N41163 1972 85 WP MM DORIS 1972-08-30 15:00:00 ET 55.5822 152.493 spur-other 199 199 _P____________ -1 55.5822 152.493 6 1000 0 0 30 349
1972242N41163 1972 85 WP MM DORIS 1972-08-30 18:00:00 ET 57.0000 152.000 1000 tokyo spur-other 203 78 _O____________ -1 57.0000 152.000 6 1000 0 0 0 26 347
1972242N41163 1972 85 WP MM DORIS 1972-08-30 21:00:00 ET 58.1074 151.461 spur-other 78 5 _P____________ -1 58.1074 151.461 6 998 0 0 20 346
1972242N41163 1972 85 WP MM DORIS 1972-08-31 00:00:00 ET 58.9000 151.100 996 tokyo spur-other 11 0 _O____________ -1 58.9000 151.100 6 996 0 0 0 14 352
1972242N41163 1972 85 WP MM DORIS 1972-08-31 03:00:00 ET 59.4620 151.076 spur-other 11 0 _P____________ -1 59.4620 151.076 6 995 0 0 9 6
1972242N41163 1972 85 WP MM DORIS 1972-08-31 06:00:00 ET 59.8000 151.300 994 tokyo spur-other 0 0 _O____________ -1 59.8000 151.300 6 994 0 0 0 6 25
1972242N41163 1972 85 WP MM DORIS 1972-08-31 09:00:00 ET 60.0527 151.627 spur-other 0 0 _P____________ -1 60.0527 151.627 6 993 0 0 5 41
1972242N41163 1972 85 WP MM DORIS 1972-08-31 12:00:00 ET 60.2000 152.000 992 tokyo spur-other 0 0 _O____________ -1 60.2000 152.000 6 992 0 0 0 4 51
1972242N41163 1972 85 WP MM DORIS 1972-08-31 15:00:00 ET 60.3073 152.258 spur-other 0 0 _P____________ -1 60.3073 152.258 6 992 0 0 3 51
1972242N41163 1972 85 WP MM DORIS 1972-08-31 18:00:00 ET 60.4000 152.500 992 tokyo spur-other 0 0 _O____________ -1 60.4000 152.500 6 992 0 0 0 3 46
1972242N41163 1972 85 WP MM DORIS 1972-08-31 21:00:00 ET 60.5422 152.756 spur-other 0 0 _P____________ -1 60.5422 152.756 6 992 0 0 4 44
1972242N41163 1972 85 WP MM DORIS 1972-09-01 00:00:00 ET 60.7000 153.100 992 tokyo spur-other 0 0 _O____________ -1 60.7000 153.100 6 992 0 0 0 5 53
1972242N41163 1972 85 WP MM DORIS 1972-09-01 03:00:00 ET 60.8577 153.612 spur-other 0 0 _P____________ -1 60.8577 153.612 6 993 0 0 6 61
1972242N41163 1972 85 WP MM DORIS 1972-09-01 06:00:00 ET 61.0000 154.200 994 tokyo spur-other 0 0 _O____________ -1 61.0000 154.200 6 994 0 0 0 6 66
1972242N41163 1972 85 WP MM DORIS 1972-09-01 09:00:00 ET 61.1102 154.762 spur-other 0 0 _P____________ -1 61.1102 154.762 6 995 0 0 6 69
1972242N41163 1972 85 WP MM DORIS 1972-09-01 12:00:00 ET 61.2000 155.300 996 tokyo spur-other 0 _O____________ -1 61.2000 155.300 6 996 0 0 0 5 71

Digital Typhoon Data and Search

About IBTrACS Database

This database is a web-friendly format of International Best Track Archive for Climate Stewardship (IBTrACS), a global best track data archive curated by NOAA dating back to 1842.

Updated: 2021-10-21